createdAt,value
2022-12-16T00:01:39.460Z,13.93
2022-12-16T00:04:07.125Z,12.60
2022-12-16T00:06:36.047Z,16.13
2022-12-16T00:09:03.739Z,12.32
2022-12-16T00:11:32.505Z,11.00
2022-12-16T00:14:00.562Z,10.52
2022-12-16T00:16:29.066Z,12.68
2022-12-16T00:18:56.626Z,10.27
2022-12-16T00:21:28.738Z,8.77
2022-12-16T00:26:24.550Z,9.70
2022-12-16T00:28:51.989Z,9.85
2022-12-16T00:31:19.643Z,9.40
2022-12-16T00:33:47.106Z,8.45
2022-12-16T00:36:14.557Z,9.70
2022-12-16T00:38:42.028Z,9.25
2022-12-16T00:41:09.555Z,7.45
2022-12-16T00:43:37.041Z,6.68
2022-12-16T00:46:04.670Z,8.10
2022-12-16T00:48:32.173Z,6.15
2022-12-16T00:50:59.622Z,7.57
2022-12-16T00:53:27.378Z,10.30
2022-12-16T00:56:10.107Z,9.68
2022-12-16T00:58:38.386Z,11.65
2022-12-16T01:01:07.815Z,12.10
2022-12-16T01:03:36.578Z,12.05
2022-12-16T01:06:30.717Z,13.40
2022-12-16T01:08:58.233Z,13.50
2022-12-16T01:11:25.680Z,12.05
2022-12-16T01:13:55.095Z,12.23
2022-12-16T01:16:23.003Z,12.05
2022-12-16T01:18:50.523Z,11.57
2022-12-16T01:21:17.922Z,9.65
2022-12-16T01:23:47.222Z,11.07
2022-12-16T01:26:17.916Z,10.90
2022-12-16T01:28:47.620Z,10.13
2022-12-16T01:31:17.313Z,9.07
2022-12-16T01:33:44.863Z,9.27
2022-12-16T01:36:12.501Z,11.27
2022-12-16T01:38:42.735Z,9.18
2022-12-16T01:41:11.922Z,8.65
2022-12-16T01:43:40.640Z,8.45
2022-12-16T01:46:14.265Z,6.95
2022-12-16T01:48:48.689Z,6.63
2022-12-16T01:51:25.428Z,5.95
2022-12-16T01:54:01.158Z,8.13
2022-12-16T01:56:31.989Z,9.57
2022-12-16T01:59:01.324Z,8.63
2022-12-16T02:01:29.316Z,9.88
2022-12-16T02:04:01.867Z,9.63
2022-12-16T02:06:30.850Z,13.27
2022-12-16T02:09:02.323Z,11.65
2022-12-16T02:11:48.480Z,11.35
2022-12-16T02:14:51.726Z,11.75
2022-12-16T02:18:16.597Z,14.48
2022-12-16T02:20:44.884Z,13.00
2022-12-16T02:23:45.853Z,11.10
2022-12-16T02:26:48.557Z,11.18
2022-12-16T02:29:34.238Z,10.00
2022-12-16T02:32:20.240Z,10.30
2022-12-16T02:35:17.689Z,11.48
2022-12-16T02:37:53.091Z,11.45
2022-12-16T02:40:44.199Z,10.32
2022-12-16T02:43:45.712Z,11.60
2022-12-16T02:46:13.416Z,10.18
2022-12-16T02:48:40.931Z,9.75
2022-12-16T02:51:09.044Z,11.00
2022-12-16T02:53:39.503Z,10.82
2022-12-16T02:56:28.066Z,10.48
2022-12-16T02:59:34.807Z,13.63
2022-12-16T03:02:08.525Z,11.70
2022-12-16T03:04:49.643Z,12.20
2022-12-16T03:07:22.117Z,12.90
2022-12-16T03:09:51.236Z,11.40
2022-12-16T03:12:21.262Z,10.02
2022-12-16T03:14:52.555Z,11.80
2022-12-16T03:17:22.088Z,10.67
2022-12-16T03:20:19.312Z,8.05
2022-12-16T03:22:51.283Z,9.18
2022-12-16T03:25:21.285Z,10.60
2022-12-16T03:28:11.997Z,11.68
2022-12-16T03:30:46.845Z,10.02
2022-12-16T03:33:27.118Z,11.63
2022-12-16T03:35:59.513Z,11.15
2022-12-16T03:38:28.107Z,11.90
2022-12-16T03:40:57.391Z,12.20
2022-12-16T03:43:25.403Z,10.75
2022-12-16T03:45:57.979Z,10.73
2022-12-16T03:48:26.528Z,11.10
2022-12-16T03:50:53.979Z,13.65
2022-12-16T03:53:26.386Z,10.48
2022-12-16T03:55:54.576Z,10.63
2022-12-16T03:58:22.321Z,12.00
2022-12-16T04:00:49.899Z,11.18
2022-12-16T04:03:17.469Z,10.98
2022-12-16T04:05:46.136Z,11.52
2022-12-16T04:08:13.627Z,10.60
2022-12-16T04:10:59.869Z,13.55
2022-12-16T04:13:45.839Z,10.88
2022-12-16T04:16:35.798Z,13.85
2022-12-16T04:19:21.675Z,14.38
2022-12-16T04:22:08.143Z,14.95
2022-12-16T04:24:36.476Z,14.40
2022-12-16T04:27:22.295Z,15.90
2022-12-16T04:30:08.345Z,18.58
2022-12-16T04:32:54.364Z,15.73
2022-12-16T04:35:40.467Z,17.60
2022-12-16T04:38:26.755Z,20.30
2022-12-16T04:41:12.617Z,17.75
2022-12-16T04:43:58.788Z,18.70
2022-12-16T04:46:44.711Z,18.25
2022-12-16T04:49:30.824Z,18.40
2022-12-16T04:52:16.839Z,17.25
2022-12-16T04:55:02.978Z,20.23
2022-12-16T04:57:49.198Z,21.25
2022-12-16T05:00:35.246Z,17.10
2022-12-16T05:03:21.181Z,22.85
2022-12-16T05:06:07.144Z,20.90
2022-12-16T05:08:52.924Z,19.67
2022-12-16T05:11:38.831Z,21.42
2022-12-16T05:14:24.743Z,23.08
2022-12-16T05:17:10.848Z,20.10
2022-12-16T05:19:57.102Z,21.45
2022-12-16T05:22:43.168Z,22.88
2022-12-16T05:25:29.006Z,21.45
2022-12-16T05:28:15.463Z,18.98
2022-12-16T05:31:01.385Z,19.60
2022-12-16T05:33:47.658Z,23.08
2022-12-16T05:36:33.942Z,20.60
2022-12-16T05:39:19.827Z,21.55
2022-12-16T05:42:06.049Z,22.67
2022-12-16T05:44:52.020Z,25.10
2022-12-16T05:47:38.367Z,21.85
2022-12-16T05:50:25.358Z,22.17
2022-12-16T05:53:18.392Z,23.20
2022-12-16T05:56:04.417Z,23.95
2022-12-16T05:58:50.216Z,23.95
2022-12-16T06:01:36.105Z,25.75
2022-12-16T06:04:22.590Z,27.98
2022-12-16T06:07:09.262Z,26.90
2022-12-16T06:09:57.028Z,28.83
2022-12-16T06:12:43.329Z,29.77
2022-12-16T06:15:29.515Z,27.95
2022-12-16T06:18:15.969Z,31.88
2022-12-16T06:21:02.405Z,30.73
2022-12-16T06:23:48.557Z,33.80
2022-12-16T06:26:34.420Z,31.63
2022-12-16T06:29:20.279Z,36.78
2022-12-16T06:32:06.124Z,38.75
2022-12-16T06:34:52.017Z,36.47
2022-12-16T06:37:38.112Z,36.60
2022-12-16T06:40:24.693Z,39.90
2022-12-16T06:43:10.429Z,38.38
2022-12-16T06:45:56.394Z,37.30
2022-12-16T06:48:42.300Z,37.47
2022-12-16T06:51:28.272Z,42.55
2022-12-16T06:54:14.183Z,41.75
2022-12-16T06:57:00.408Z,37.47
2022-12-16T06:59:46.471Z,40.00
2022-12-16T07:02:32.432Z,36.55
2022-12-16T07:05:26.209Z,40.22
2022-12-16T07:08:12.321Z,40.00
2022-12-16T07:11:06.141Z,44.47
2022-12-16T07:14:01.635Z,38.55
2022-12-16T07:16:48.005Z,40.90
2022-12-16T07:19:34.454Z,37.72
2022-12-16T07:22:20.530Z,36.85
2022-12-16T07:25:06.334Z,39.40
2022-12-16T07:27:52.505Z,38.13
2022-12-16T07:30:38.776Z,37.70
2022-12-16T07:33:25.000Z,34.40
2022-12-16T07:36:11.191Z,36.55
2022-12-16T07:38:57.531Z,31.67
2022-12-16T07:41:43.526Z,31.25
2022-12-16T07:44:29.995Z,31.75
2022-12-16T07:47:16.136Z,30.67
2022-12-16T07:50:02.256Z,28.73
2022-12-16T07:52:48.418Z,31.23
2022-12-16T07:55:34.183Z,29.88
2022-12-16T07:58:20.396Z,33.95
2022-12-16T08:01:09.362Z,37.30
2022-12-16T08:03:56.150Z,32.25
2022-12-16T08:06:42.444Z,35.08
2022-12-16T08:09:28.865Z,40.22
2022-12-16T08:12:14.851Z,36.33
2022-12-16T08:15:00.751Z,40.85
2022-12-16T08:17:46.699Z,40.95
2022-12-16T08:20:32.860Z,36.85
2022-12-16T08:23:19.324Z,37.28
2022-12-16T08:26:05.700Z,36.10
2022-12-16T08:28:52.083Z,38.88
2022-12-16T08:31:39.200Z,36.80
2022-12-16T08:34:25.046Z,36.13
2022-12-16T08:37:11.262Z,35.67
2022-12-16T08:40:25.600Z,39.42
2022-12-16T08:43:07.832Z,38.08
2022-12-16T08:45:56.931Z,38.88
2022-12-16T08:48:42.868Z,35.97
2022-12-16T08:51:28.694Z,35.47
2022-12-16T08:54:14.742Z,39.30
2022-12-16T08:57:00.892Z,37.50
2022-12-16T08:59:46.910Z,35.33
2022-12-16T09:02:33.140Z,35.50
2022-12-16T09:05:19.336Z,34.28
2022-12-16T09:08:05.324Z,34.33
2022-12-16T09:10:51.229Z,37.03
2022-12-16T09:13:37.073Z,35.05
2022-12-16T09:16:23.287Z,35.42
2022-12-16T09:19:09.328Z,34.47
2022-12-16T09:22:02.769Z,33.65
2022-12-16T09:24:48.897Z,33.45
2022-12-16T09:27:34.930Z,31.33
2022-12-16T09:30:21.159Z,31.02
2022-12-16T09:33:07.092Z,28.30
2022-12-16T09:35:52.995Z,27.70
2022-12-16T09:38:41.245Z,30.90
2022-12-16T09:41:39.779Z,29.65
2022-12-16T09:44:51.863Z,29.77
2022-12-16T09:48:02.837Z,29.90
2022-12-16T09:50:50.292Z,29.27
2022-12-16T09:53:40.535Z,22.55
2022-12-16T09:56:35.168Z,24.33
2022-12-16T09:59:29.252Z,27.33
2022-12-16T10:02:15.819Z,25.60
2022-12-16T10:05:05.742Z,21.63
2022-12-16T10:07:54.805Z,20.80
2022-12-16T10:10:57.650Z,18.17
2022-12-16T10:14:12.301Z,21.52
2022-12-16T10:17:04.641Z,17.50
2022-12-16T10:20:44.888Z,20.13
2022-12-16T10:23:48.777Z,21.20
2022-12-16T10:26:55.915Z,16.33
2022-12-16T10:29:47.418Z,13.25
2022-12-16T10:33:00.945Z,16.38
2022-12-16T10:35:55.651Z,18.63
2022-12-16T10:38:58.972Z,16.90
2022-12-16T10:41:50.951Z,18.20
2022-12-16T10:44:52.025Z,22.10
2022-12-16T10:47:38.886Z,16.73
2022-12-16T10:50:25.381Z,17.42
2022-12-16T10:53:32.085Z,17.38
2022-12-16T10:56:49.227Z,18.92
2022-12-16T10:59:35.262Z,18.83
2022-12-16T11:02:24.169Z,18.77
2022-12-16T11:05:10.049Z,18.45
2022-12-16T11:08:11.202Z,18.58
2022-12-16T11:11:02.809Z,19.13
2022-12-16T11:13:50.180Z,22.02
2022-12-16T11:16:42.297Z,24.60
2022-12-16T11:19:41.720Z,28.90
2022-12-16T11:22:40.430Z,27.70
2022-12-16T11:25:40.024Z,28.27
2022-12-16T11:28:33.636Z,24.98
2022-12-16T11:31:25.142Z,22.38
2022-12-16T11:34:12.818Z,22.97
2022-12-16T11:37:00.307Z,37.60
2022-12-16T11:39:49.937Z,21.55
2022-12-16T11:42:42.656Z,19.50
2022-12-16T11:45:35.145Z,21.20
2022-12-16T11:48:54.999Z,23.13
2022-12-16T11:51:42.388Z,19.83
2022-12-16T11:54:46.984Z,19.58
2022-12-16T11:57:57.265Z,18.17
2022-12-16T12:00:43.400Z,19.98
2022-12-16T12:03:43.995Z,19.05
2022-12-16T12:06:35.787Z,16.48
2022-12-16T12:09:34.351Z,17.73
2022-12-16T12:12:44.204Z,15.48
2022-12-16T12:15:50.182Z,16.08
2022-12-16T12:19:01.273Z,15.55
2022-12-16T12:22:01.887Z,14.77
2022-12-16T12:24:47.753Z,15.25
2022-12-16T12:27:48.942Z,15.15
2022-12-16T12:30:38.596Z,14.35
2022-12-16T12:33:42.500Z,15.65
2022-12-16T12:36:39.393Z,14.38
2022-12-16T12:39:25.320Z,16.48
2022-12-16T12:42:48.777Z,19.95
2022-12-16T12:45:38.152Z,15.60
2022-12-16T12:48:31.029Z,19.48
2022-12-16T12:51:33.181Z,18.80
2022-12-16T12:54:49.275Z,16.90
2022-12-16T12:57:39.704Z,14.57
2022-12-16T13:00:41.437Z,15.80
2022-12-16T13:03:44.128Z,17.35
2022-12-16T13:09:19.007Z,16.52
2022-12-16T13:12:26.681Z,15.60
2022-12-16T13:15:14.867Z,15.52
2022-12-16T13:18:19.739Z,15.85
2022-12-16T13:21:14.830Z,15.80
2022-12-16T13:24:04.273Z,19.25
2022-12-16T13:26:53.731Z,19.38
2022-12-16T13:29:43.579Z,20.52
2022-12-16T13:32:46.991Z,18.85
2022-12-16T13:35:36.449Z,19.88
2022-12-16T13:38:39.524Z,20.55
2022-12-16T13:41:45.405Z,22.83
2022-12-16T13:44:52.491Z,23.35
2022-12-16T13:48:02.103Z,21.77
2022-12-16T13:50:57.917Z,21.65
2022-12-16T13:53:55.761Z,22.15
2022-12-16T13:56:55.936Z,21.90
2022-12-16T13:59:46.781Z,24.55
2022-12-16T14:02:50.026Z,24.55
2022-12-16T14:05:41.540Z,22.35
2022-12-16T14:08:37.268Z,26.85
2022-12-16T14:11:37.056Z,22.45
2022-12-16T14:14:41.681Z,24.75
2022-12-16T14:17:41.464Z,26.83
2022-12-16T14:20:53.789Z,27.40
2022-12-16T14:23:56.905Z,28.75
2022-12-16T14:26:44.963Z,29.27
2022-12-16T14:29:46.381Z,28.88
2022-12-16T14:32:46.068Z,32.50
2022-12-16T14:35:41.047Z,33.10
2022-12-16T14:38:48.036Z,30.65
2022-12-16T14:41:38.813Z,31.92
2022-12-16T14:44:39.428Z,30.20
2022-12-16T14:47:34.413Z,34.90
2022-12-16T14:50:22.839Z,39.08
2022-12-16T14:53:09.173Z,33.63
2022-12-16T14:55:55.420Z,31.15
2022-12-16T14:58:42.863Z,32.53
2022-12-16T15:01:43.332Z,34.70
2022-12-16T15:04:37.146Z,34.47
2022-12-16T15:07:31.121Z,34.65
2022-12-16T15:10:19.399Z,32.33
2022-12-16T15:13:07.139Z,35.45
2022-12-16T15:15:56.984Z,36.08
2022-12-16T15:18:49.124Z,38.17
2022-12-16T15:21:35.379Z,36.88
2022-12-16T15:24:27.460Z,38.55
2022-12-16T15:27:45.600Z,35.35
2022-12-16T15:30:50.969Z,33.55
2022-12-16T15:33:44.538Z,35.03
2022-12-16T15:36:45.094Z,34.50
2022-12-16T15:39:40.065Z,37.70
2022-12-16T15:42:39.352Z,38.83
2022-12-16T15:45:34.798Z,37.10
2022-12-16T15:48:48.001Z,35.72
2022-12-16T15:51:49.909Z,37.97
2022-12-16T15:54:43.453Z,35.00
2022-12-16T15:57:50.811Z,34.67
2022-12-16T16:00:49.029Z,35.63
2022-12-16T16:03:46.957Z,37.13
2022-12-16T16:06:44.759Z,40.08
2022-12-16T16:09:50.685Z,35.15
2022-12-16T16:12:39.311Z,33.85
2022-12-16T16:15:27.576Z,39.45
2022-12-16T16:18:24.433Z,33.00
2022-12-16T16:21:10.349Z,35.92
2022-12-16T16:23:56.686Z,33.45
2022-12-16T16:26:46.075Z,35.17
2022-12-16T16:29:33.197Z,36.95
2022-12-16T16:32:20.355Z,40.38
2022-12-16T16:35:06.188Z,40.75
2022-12-16T16:37:52.359Z,37.47
2022-12-16T16:40:52.361Z,41.30
2022-12-16T16:43:38.795Z,41.53
2022-12-16T16:46:36.937Z,41.42
2022-12-16T16:49:23.692Z,40.30
2022-12-16T16:52:09.660Z,37.35
2022-12-16T16:54:55.836Z,39.85
2022-12-16T16:57:41.649Z,38.78
2022-12-16T17:00:29.194Z,41.22
2022-12-16T17:03:15.568Z,40.53
2022-12-16T17:06:01.769Z,38.92
2022-12-16T17:08:47.665Z,35.38
2022-12-16T17:11:39.125Z,41.33
2022-12-16T17:14:29.079Z,40.20
2022-12-16T17:17:14.988Z,44.97
2022-12-16T17:20:01.153Z,45.00
2022-12-16T17:22:47.727Z,45.08
2022-12-16T17:25:34.081Z,47.42
2022-12-16T17:28:20.477Z,47.47
2022-12-16T17:31:06.722Z,40.22
2022-12-16T17:33:52.488Z,42.17
2022-12-16T17:36:38.859Z,42.83
2022-12-16T17:39:24.953Z,44.83
2022-12-16T17:42:10.800Z,44.95
2022-12-16T17:44:56.803Z,47.22
2022-12-16T17:47:42.960Z,42.65
2022-12-16T17:50:29.359Z,42.67
2022-12-16T17:53:30.024Z,44.22
2022-12-16T17:56:22.089Z,45.47
2022-12-16T17:59:11.102Z,43.03
2022-12-16T18:01:57.434Z,44.92
2022-12-16T18:04:43.680Z,45.90
2022-12-16T18:07:29.741Z,47.80
2022-12-16T18:10:15.683Z,47.08
2022-12-16T18:13:01.553Z,44.40
2022-12-16T18:15:47.395Z,41.05
2022-12-16T18:18:33.609Z,40.65
2022-12-16T18:21:33.068Z,44.45
2022-12-16T18:24:23.432Z,46.05
2022-12-16T18:27:09.738Z,43.92
2022-12-16T18:29:55.910Z,43.83
2022-12-16T18:32:41.876Z,45.42
2022-12-16T18:35:27.887Z,41.75
2022-12-16T18:38:16.592Z,49.78
2022-12-16T18:41:02.652Z,46.85
2022-12-16T18:43:49.133Z,46.40
2022-12-16T18:46:34.995Z,42.28
2022-12-16T18:49:21.064Z,45.55
2022-12-16T18:52:07.001Z,46.38
2022-12-16T18:54:52.705Z,42.38
2022-12-16T18:57:39.942Z,44.58
2022-12-16T19:00:27.000Z,43.22
2022-12-16T19:03:13.075Z,40.22
2022-12-16T19:05:59.100Z,43.00
2022-12-16T19:08:47.226Z,41.63
2022-12-16T19:11:33.183Z,43.50
2022-12-16T19:14:19.447Z,48.50
2022-12-16T19:17:05.664Z,44.33
2022-12-16T19:19:51.536Z,39.42
2022-12-16T19:22:37.361Z,42.33
2022-12-16T19:25:23.882Z,43.75
2022-12-16T19:28:09.810Z,44.13
2022-12-16T19:30:56.427Z,41.88
2022-12-16T19:33:42.290Z,43.67
2022-12-16T19:36:28.235Z,44.83
2022-12-16T19:39:14.403Z,39.50
2022-12-16T19:42:00.525Z,41.35
2022-12-16T19:44:46.542Z,40.55
2022-12-16T19:47:32.677Z,43.08
2022-12-16T19:50:18.951Z,45.97
2022-12-16T19:53:05.255Z,42.28
2022-12-16T19:55:53.071Z,48.63
2022-12-16T19:58:40.337Z,40.13
2022-12-16T20:01:28.310Z,42.85
2022-12-16T20:04:14.791Z,48.10
2022-12-16T20:07:00.628Z,42.42
2022-12-16T20:09:46.553Z,41.35
2022-12-16T20:12:32.518Z,46.53
2022-12-16T20:15:18.658Z,39.30
2022-12-16T20:18:04.688Z,43.67
2022-12-16T20:20:51.820Z,43.58
2022-12-16T20:23:37.816Z,41.75
2022-12-16T20:26:24.088Z,41.72
2022-12-16T20:29:10.205Z,41.65
2022-12-16T20:31:56.256Z,41.35
2022-12-16T20:34:42.252Z,38.42
2022-12-16T20:37:27.926Z,40.72
2022-12-16T20:40:14.152Z,37.42
2022-12-16T20:42:59.897Z,44.95
2022-12-16T20:45:46.021Z,44.00
2022-12-16T20:48:33.174Z,42.40
2022-12-16T20:51:26.485Z,45.28
2022-12-16T20:54:13.517Z,39.60
2022-12-16T20:56:59.515Z,42.58
2022-12-16T20:59:45.841Z,46.03
2022-12-16T21:02:33.840Z,40.53
2022-12-16T21:05:21.757Z,43.72
2022-12-16T21:08:07.637Z,45.65
2022-12-16T21:11:04.168Z,42.28
2022-12-16T21:13:50.546Z,43.13
2022-12-16T21:16:36.714Z,43.25
2022-12-16T21:19:25.501Z,47.40
2022-12-16T21:22:14.029Z,45.33
2022-12-16T21:25:00.269Z,44.20
2022-12-16T21:27:46.135Z,44.80
2022-12-16T21:30:32.441Z,40.58
2022-12-16T21:33:18.469Z,43.05
2022-12-16T21:36:13.237Z,41.22
2022-12-16T21:38:59.368Z,42.00
2022-12-16T21:41:45.432Z,38.70
2022-12-16T21:44:31.801Z,41.28
2022-12-16T21:47:17.591Z,40.85
2022-12-16T21:50:03.909Z,41.25
2022-12-16T21:52:50.028Z,39.55
2022-12-16T21:55:35.918Z,38.88
2022-12-16T21:58:21.798Z,39.58
2022-12-16T22:01:15.816Z,38.58
2022-12-16T22:04:02.448Z,44.08
2022-12-16T22:06:49.126Z,44.17
2022-12-16T22:09:35.725Z,49.03
2022-12-16T22:12:21.619Z,47.97
2022-12-16T22:15:07.669Z,43.65
2022-12-16T22:17:58.289Z,45.88
2022-12-16T22:20:45.091Z,43.30
2022-12-16T22:23:30.980Z,48.10
2022-12-16T22:26:19.223Z,51.10
2022-12-16T22:29:05.608Z,46.47
2022-12-16T22:31:51.322Z,55.95
2022-12-16T22:34:37.675Z,52.58
2022-12-16T22:37:23.945Z,48.42
2022-12-16T22:40:09.784Z,55.20
2022-12-16T22:42:56.327Z,55.13
2022-12-16T22:45:42.517Z,54.75
2022-12-16T22:48:31.194Z,54.20
2022-12-16T22:51:17.304Z,54.72
2022-12-16T22:54:03.520Z,54.47
2022-12-16T22:56:49.298Z,64.05
2022-12-16T22:59:52.005Z,53.42
2022-12-16T23:08:30.100Z,56.90
2022-12-16T23:11:17.983Z,56.72
2022-12-16T23:14:04.102Z,64.10
2022-12-16T23:16:49.962Z,60.03
2022-12-16T23:19:36.029Z,57.00
2022-12-16T23:22:21.920Z,51.33
2022-12-16T23:25:07.826Z,52.65
2022-12-16T23:27:53.830Z,51.00
2022-12-16T23:30:39.867Z,53.53
2022-12-16T23:33:25.731Z,60.33
2022-12-16T23:36:11.554Z,61.20
2022-12-16T23:38:57.745Z,59.85
2022-12-16T23:41:43.656Z,55.60
2022-12-16T23:44:29.315Z,58.45
2022-12-16T23:47:15.025Z,55.97
2022-12-16T23:50:00.912Z,55.50
2022-12-16T23:52:46.609Z,58.17
2022-12-16T23:55:32.322Z,54.65
2022-12-16T23:58:19.343Z,53.97
